^^
Saratoga-Weather Station Historical Data
 
Daily Summary for January 28, 2023 Units:  Metric    English   Both
Daily Weekly Monthly Yearly
  Current: High: Low: Average:
Temperature: 0.2 °C 1.5 °C 0.2 °C 0.7 °C
Dew Point: -1.6 °C -1 °C -1.6 °C -1.3 °C
Humidity: 88% 88% 81% 86%
Wind Speed: 3.2km/h 5.5km/h 0km/h 1.8km/h
Wind Gust: 3.2km/h 6.4km/h - -
WindWSW - - WSW
Pressure: 1016.7 hPa 1016.7 hPa 1015.0 hPa -
Precipitation: 0.0 mm      
 
 
Tabular Data for January 28, 2023
Time Temperature Dew Point Pressure Wind Wind Speed Wind Gust Humidity Rainfall Rate (Hourly) solar
00:04 1.5 °C -1.4 °C 1015.0 hPa Calm     81% 0.0 mm 0 W/m2
00:09 1.5 °C -1.4 °C 1015.1 hPa Calm     81.3% 0.0 mm 0 W/m2
00:14 1.4 °C -1.3 °C 1015.1 hPa Calm     82% 0.0 mm 0 W/m2
00:19 1.4 °C -1.3 °C 1015.1 hPa Calm     82% 0.0 mm 0 W/m2
00:24 1.4 °C -1.3 °C 1015.1 hPa Calm     82.3% 0.0 mm 0 W/m2
00:28 1.4 °C -1.2 °C 1015.1 hPa Calm     83% 0.0 mm 0 W/m2
00:34 1.3 °C -1.2 °C 1015.0 hPa Calm     83% 0.0 mm 0 W/m2
00:39 1.3 °C -1 °C 1015.1 hPa Calm     84.7% 0.0 mm 0 W/m2
00:44 1.2 °C -1.2 °C 1015.1 hPa Calm     84% 0.0 mm 0 W/m2
00:49 1.2 °C -1.2 °C 1015.1 hPa Calm     84% 0.0 mm 0 W/m2
00:54 1.1 °C -1.3 °C 1015.1 hPa NNW 2 km/h 3.2 km/h 84% 0.0 mm 0 W/m2
00:59 1.1 °C -1.3 °C 1015.1 hPa NNW 3.9 km/h 4.8 km/h 84.1% 0.0 mm 0 W/m2
01:04 1.1 °C -1.2 °C 1015.0 hPa NNW 3.3 km/h 3.2 km/h 85% 0.0 mm 0 W/m2
01:09 1 °C -1.2 °C 1015.0 hPa NNW 3.4 km/h 3.2 km/h 85% 0.0 mm 0 W/m2
01:14 1 °C -1.3 °C 1015.0 hPa NNW 2.9 km/h 3.2 km/h 85% 0.0 mm 0 W/m2
01:19 0.9 °C -1.3 °C 1015.1 hPa NNW 2.9 km/h 3.2 km/h 85% 0.0 mm 0 W/m2
01:24 0.9 °C -1.3 °C 1015.0 hPa NNW 2.7 km/h 3.2 km/h 85% 0.0 mm 0 W/m2
01:29 0.9 °C -1.2 °C 1015.0 hPa NNW 3.4 km/h 3.2 km/h 85.9% 0.0 mm 0 W/m2
01:34 0.9 °C -1.2 °C 1015.0 hPa NNW 2.6 km/h 3.2 km/h 86% 0.0 mm 0 W/m2
01:39 0.9 °C -1.2 °C 1015.0 hPa Calm   3.2 km/h 86% 0.0 mm 0 W/m2
01:44 0.9 °C -1.2 °C 1015.2 hPa NNW 0.6 km/h   86% 0.0 mm 0 W/m2
01:48 0.9 °C -1.2 °C 1015.2 hPa NNW 0.5 km/h 1.6 km/h 86% 0.0 mm 0 W/m2
01:54 0.8 °C -1.3 °C 1015.2 hPa SW 4 km/h 4.2 km/h 85.7% 0.0 mm 0 W/m2
01:58 0.8 °C -1.4 °C 1015.2 hPa SSW 5.5 km/h 6.4 km/h 85% 0.0 mm 0 W/m2
02:04 0.7 °C -1.4 °C 1015.2 hPa SW 4.7 km/h 6.4 km/h 85.3% 0.0 mm 0 W/m2
02:09 0.7 °C -1.4 °C 1015.1 hPa SW 4.3 km/h 4.8 km/h 85.8% 0.0 mm 0 W/m2
02:14 0.7 °C -1.3 °C 1015.2 hPa SW 4.6 km/h 4.8 km/h 86% 0.0 mm 0 W/m2
02:19 0.7 °C -1.3 °C 1015.1 hPa SW 3.4 km/h 4.8 km/h 86% 0.0 mm 0 W/m2
02:24 0.7 °C -1.3 °C 1015.2 hPa SW 2.2 km/h 3.2 km/h 86% 0.0 mm 0 W/m2
02:29 0.7 °C -1.3 °C 1015.2 hPa SW 0.6 km/h 3.2 km/h 86.7% 0.0 mm 0 W/m2
02:34 0.7 °C -1.2 °C 1015.4 hPa SW 2.4 km/h 2.1 km/h 86.8% 0.0 mm 0 W/m2
02:39 0.8 °C -1.2 °C 1015.5 hPa SW 1.9 km/h 3.2 km/h 87% 0.0 mm 0 W/m2
02:44 0.8 °C -1.2 °C 1015.4 hPa SW 2.4 km/h 2.9 km/h 87% 0.0 mm 0 W/m2
02:49 0.8 °C -1.2 °C 1015.5 hPa SW 3.4 km/h 3.2 km/h 87% 0.0 mm 0 W/m2
02:54 0.8 °C -1.1 °C 1015.5 hPa SW 2.2 km/h 3.2 km/h 87% 0.0 mm 0 W/m2
02:59 0.9 °C -1.1 °C 1015.5 hPa SW 2.8 km/h 2.3 km/h 86.5% 0.0 mm 0 W/m2
03:04 0.9 °C -1.1 °C 1015.5 hPa SW 3.4 km/h 3.2 km/h 86% 0.0 mm 0 W/m2
03:09 0.9 °C -1.1 °C 1015.4 hPa SW 2.9 km/h 3.2 km/h 86% 0.0 mm 0 W/m2
03:14 1 °C -1.1 °C 1015.4 hPa SW 1.9 km/h 3.2 km/h 86% 0.0 mm 0 W/m2
03:19 0.9 °C -1.1 °C 1015.3 hPa SW 1.6 km/h 1.6 km/h 86% 0.0 mm 0 W/m2
03:24 0.9 °C -1.1 °C 1015.2 hPa SW 1.9 km/h 3.2 km/h 86% 0.0 mm 0 W/m2
03:29 0.9 °C -1.2 °C 1015.2 hPa SW 1.9 km/h 1.6 km/h 86% 0.0 mm 0 W/m2
03:34 0.8 °C -1.2 °C 1015.2 hPa SW 1.6 km/h 1.6 km/h 86% 0.0 mm 0 W/m2
03:39 0.8 °C -1.2 °C 1015.3 hPa SW 1.6 km/h 1.6 km/h 86% 0.0 mm 0 W/m2
03:44 0.8 °C -1.3 °C 1015.3 hPa SW 1.9 km/h 1.6 km/h 86% 0.0 mm 0 W/m2
03:49 0.8 °C -1.3 °C 1015.4 hPa SW 2.1 km/h 2.3 km/h 86% 0.0 mm 0 W/m2
03:54 0.8 °C -1.3 °C 1015.4 hPa SW 3.4 km/h 3.2 km/h 86% 0.0 mm 0 W/m2
03:59 0.7 °C -1.4 °C 1015.5 hPa SW 2.2 km/h 3.2 km/h 86% 0.0 mm 0 W/m2
04:04 0.6 °C -1.4 °C 1015.5 hPa SW 3.3 km/h 3.7 km/h 86% 0.0 mm 0 W/m2
04:09 0.6 °C -1.4 °C 1015.5 hPa SW 2.6 km/h 3.2 km/h 86% 0.0 mm 0 W/m2
04:14 0.6 °C -1.3 °C 1015.5 hPa SW 1 km/h 3.2 km/h 87% 0.0 mm 0 W/m2
04:19 0.6 °C -1.3 °C 1015.5 hPa SW 2.1 km/h 1.6 km/h 87% 0.0 mm 0 W/m2
04:24 0.6 °C -1.3 °C 1015.5 hPa Calm   3.2 km/h 87% 0.0 mm 0 W/m2
04:29 0.5 °C -1.4 °C 1015.5 hPa Calm     87% 0.0 mm 0 W/m2
04:34 0.5 °C -1.4 °C 1015.5 hPa Calm     87% 0.0 mm 0 W/m2
04:39 0.4 °C -1.4 °C 1015.5 hPa Calm     87% 0.0 mm 0 W/m2
04:44 0.4 °C -1.5 °C 1015.6 hPa SW 0.3 km/h   87% 0.0 mm 0 W/m2
04:49 0.4 °C -1.5 °C 1015.8 hPa SW 0.3 km/h 1.6 km/h 87% 0.0 mm 0 W/m2
04:54 0.4 °C -1.5 °C 1015.9 hPa Calm     87% 0.0 mm 0 W/m2
04:59 0.4 °C -1.5 °C 1015.8 hPa Calm     87% 0.0 mm 0 W/m2
05:04 0.4 °C -1.5 °C 1015.8 hPa Calm     87% 0.0 mm 0 W/m2
05:08 0.4 °C -1.5 °C 1015.9 hPa SW 1.5 km/h 1.6 km/h 87.2% 0.0 mm 0 W/m2
05:13 0.4 °C -1.4 °C 1015.9 hPa SW 1.8 km/h 2.1 km/h 88% 0.0 mm 0 W/m2
05:19 0.4 °C -1.3 °C 1016.0 hPa SW 1.9 km/h 3.2 km/h 88% 0.0 mm 0 W/m2
05:24 0.4 °C -1.3 °C 1016.0 hPa SW 1.4 km/h 1.6 km/h 88% 0.0 mm 0 W/m2
05:29 0.4 °C -1.3 °C 1016.0 hPa SW 1.9 km/h 3.2 km/h 88% 0.0 mm 0 W/m2
05:34 0.4 °C -1.3 °C 1016.0 hPa SW 1.9 km/h 1.6 km/h 88% 0.0 mm 0 W/m2
05:39 0.5 °C -1.3 °C 1016.1 hPa SW 2.4 km/h 1.9 km/h 88% 0.0 mm 0 W/m2
05:44 0.5 °C -1.3 °C 1016.1 hPa SW 2.8 km/h 3.2 km/h 88% 0.0 mm 0 W/m2
05:49 0.5 °C -1.3 °C 1016.3 hPa SW 1.9 km/h 3.2 km/h 88% 0.0 mm 0 W/m2
05:54 0.5 °C -1.3 °C 1016.3 hPa SW 2.1 km/h 1.6 km/h 88% 0.0 mm 0 W/m2
05:59 0.5 °C -1.3 °C 1016.3 hPa SW 1.9 km/h 3.2 km/h 88% 0.0 mm 0 W/m2
06:04 0.4 °C -1.3 °C 1016.4 hPa SW 1.9 km/h 3.2 km/h 88% 0.0 mm 0 W/m2
06:09 0.4 °C -1.3 °C 1016.4 hPa SW 0.3 km/h 1.6 km/h 88% 0.0 mm 0 W/m2
06:14 0.4 °C -1.3 °C 1016.4 hPa SW 3 km/h 2.3 km/h 88% 0.0 mm 0 W/m2
06:19 0.4 °C -1.3 °C 1016.4 hPa SW 1.8 km/h 3.2 km/h 88% 0.0 mm 0 W/m2
06:24 0.4 °C -1.3 °C 1016.6 hPa SW 2.6 km/h 1.9 km/h 88% 0.0 mm 0 W/m2
06:29 0.4 °C -1.3 °C 1016.6 hPa SW 0.7 km/h 3.2 km/h 88% 0.0 mm 0 W/m2
06:34 0.4 °C -1.4 °C 1016.7 hPa SW 0.6 km/h 1.6 km/h 88% 0.0 mm 0 W/m2
06:39 0.4 °C -1.4 °C 1016.7 hPa SW 1 km/h 1.6 km/h 88% 0.0 mm 0 W/m2
06:44 0.3 °C -1.5 °C 1016.7 hPa SW 0.4 km/h 1.6 km/h 88% 0.0 mm 0 W/m2
06:49 0.3 °C -1.5 °C 1016.7 hPa Calm     88% 0.0 mm 0 W/m2
06:54 0.2 °C -1.5 °C 1016.7 hPa WSW 2.4 km/h 3.1 km/h 88% 0.0 mm 0 W/m2
06:58 0.2 °C -1.6 °C 1016.7 hPa WSW 3.2 km/h 3.2 km/h 88% 0.0 mm 0 W/m2
Lodi Weather
Compliments of Weather Underground - 1.5 mb